createdAt,value
2018-01-06T00:01:19.423Z,5.57
2018-01-06T00:03:47.059Z,7.17
2018-01-06T00:06:14.659Z,9.90
2018-01-06T00:08:42.248Z,4.60
2018-01-06T00:11:10.643Z,3.80
2018-01-06T00:13:38.307Z,5.10
2018-01-06T00:16:05.951Z,4.60
2018-01-06T00:18:34.327Z,3.97
2018-01-06T00:21:02.741Z,4.17
2018-01-06T00:23:30.332Z,4.43
2018-01-06T00:25:57.925Z,4.13
2018-01-06T00:28:25.524Z,4.63
2018-01-06T00:30:54.031Z,3.90
2018-01-06T00:33:21.647Z,3.67
2018-01-06T00:35:50.005Z,4.60
2018-01-06T00:38:17.624Z,3.50
2018-01-06T00:40:45.221Z,5.07
2018-01-06T00:43:12.803Z,4.40
2018-01-06T00:45:40.440Z,4.43
2018-01-06T00:48:08.027Z,3.60
2018-01-06T00:50:35.636Z,5.70
2018-01-06T00:53:04.013Z,5.90
2018-01-06T00:55:31.632Z,4.87
2018-01-06T00:58:00.063Z,3.93
2018-01-06T01:00:27.647Z,4.70
2018-01-06T01:02:56.020Z,4.10
2018-01-06T01:05:23.618Z,3.43
2018-01-06T01:07:51.236Z,4.17
2018-01-06T01:10:18.842Z,3.67
2018-01-06T01:12:46.848Z,3.53
2018-01-06T01:15:14.458Z,2.90
2018-01-06T01:17:42.814Z,4.17
2018-01-06T01:20:10.420Z,3.20
2018-01-06T01:22:38.777Z,3.30
2018-01-06T01:25:06.394Z,2.93
2018-01-06T01:27:34.002Z,3.40
2018-01-06T01:30:01.607Z,3.10
2018-01-06T01:32:29.203Z,2.50
2018-01-06T01:34:56.793Z,2.80
2018-01-06T01:37:24.391Z,2.53
2018-01-06T01:39:52.761Z,2.97
2018-01-06T01:42:20.571Z,2.90
2018-01-06T01:44:48.165Z,2.70
2018-01-06T01:47:15.753Z,4.63
2018-01-06T01:49:43.365Z,3.77
2018-01-06T01:52:10.950Z,3.43
2018-01-06T01:54:38.543Z,2.73
2018-01-06T01:57:06.939Z,2.93
2018-01-06T01:59:34.535Z,3.57
2018-01-06T02:02:02.127Z,2.80
2018-01-06T02:04:29.713Z,2.20
2018-01-06T02:06:57.334Z,2.83
2018-01-06T02:09:25.071Z,3.60
2018-01-06T02:11:52.990Z,3.10
2018-01-06T02:14:20.582Z,2.30
2018-01-06T02:16:48.176Z,3.17
2018-01-06T02:19:16.544Z,2.63
2018-01-06T02:21:44.212Z,2.80
2018-01-06T02:24:11.877Z,2.53
2018-01-06T02:26:40.978Z,2.40
2018-01-06T02:29:08.912Z,2.47
2018-01-06T02:31:36.495Z,2.30
2018-01-06T02:34:04.082Z,2.60
2018-01-06T02:36:31.742Z,2.27
2018-01-06T02:39:00.842Z,2.87
2018-01-06T02:41:28.449Z,3.33
2018-01-06T02:43:56.037Z,2.70
2018-01-06T02:46:23.640Z,2.77
2018-01-06T02:48:51.984Z,3.00
2018-01-06T02:51:19.579Z,2.27
2018-01-06T02:53:47.191Z,2.53
2018-01-06T02:56:15.534Z,2.33
2018-01-06T02:58:43.984Z,2.90
2018-01-06T03:01:11.669Z,2.57
2018-01-06T03:03:39.287Z,2.33
2018-01-06T03:06:07.643Z,2.03
2018-01-06T03:08:35.236Z,2.10
2018-01-06T03:11:03.699Z,2.30
2018-01-06T03:13:31.301Z,2.67
2018-01-06T03:15:58.905Z,1.97
2018-01-06T03:18:26.514Z,2.00
2018-01-06T03:20:54.866Z,2.07
2018-01-06T03:23:22.489Z,2.60
2018-01-06T03:25:50.083Z,1.93
2018-01-06T03:28:17.707Z,2.37
2018-01-06T03:30:45.454Z,1.70
2018-01-06T03:33:14.049Z,2.00
2018-01-06T03:35:42.435Z,1.77
2018-01-06T03:38:10.786Z,2.00
2018-01-06T03:40:39.919Z,3.27
2018-01-06T03:43:07.548Z,2.60
2018-01-06T03:45:35.917Z,2.40
2018-01-06T03:48:03.536Z,3.10
2018-01-06T03:50:31.130Z,2.40
2018-01-06T03:52:58.737Z,2.10
2018-01-06T03:55:26.318Z,2.30
2018-01-06T03:57:54.690Z,2.07
2018-01-06T04:00:22.302Z,2.30
2018-01-06T04:02:49.890Z,2.30
2018-01-06T04:05:17.490Z,2.00
2018-01-06T04:07:45.076Z,1.97
2018-01-06T04:10:12.716Z,2.03
2018-01-06T04:12:40.304Z,2.50
2018-01-06T04:15:08.681Z,2.00
2018-01-06T04:17:37.184Z,1.60
2018-01-06T04:20:04.914Z,1.93
2018-01-06T04:22:32.509Z,2.43
2018-01-06T04:25:00.112Z,2.00
2018-01-06T04:27:27.724Z,1.90
2018-01-06T04:29:56.091Z,2.13
2018-01-06T04:32:23.851Z,1.93
2018-01-06T04:34:51.446Z,2.33
2018-01-06T04:37:19.793Z,1.87
2018-01-06T04:39:47.497Z,2.40
2018-01-06T04:42:16.157Z,2.60
2018-01-06T04:44:44.806Z,2.70
2018-01-06T04:47:12.396Z,2.50
2018-01-06T04:49:39.971Z,1.90
2018-01-06T04:52:07.587Z,2.70
2018-01-06T04:54:35.179Z,2.80
2018-01-06T04:57:02.805Z,2.50
2018-01-06T04:59:31.175Z,2.40
2018-01-06T05:01:58.759Z,2.43
2018-01-06T05:04:27.131Z,2.83
2018-01-06T05:06:55.583Z,2.90
2018-01-06T05:09:24.723Z,2.53
2018-01-06T05:11:53.092Z,2.20
2018-01-06T05:14:21.474Z,2.83
2018-01-06T05:16:49.101Z,2.43
2018-01-06T05:19:16.704Z,3.50
2018-01-06T05:21:44.320Z,2.77
2018-01-06T05:24:11.912Z,3.30
2018-01-06T05:26:39.519Z,2.53
2018-01-06T05:29:07.878Z,3.20
2018-01-06T05:31:35.520Z,2.73
2018-01-06T05:34:03.108Z,2.80
2018-01-06T05:36:30.696Z,3.50
2018-01-06T05:38:59.086Z,2.43
2018-01-06T05:41:26.822Z,3.33
2018-01-06T05:43:54.442Z,3.27
2018-01-06T05:46:22.189Z,3.33
2018-01-06T05:48:50.540Z,3.80
2018-01-06T05:51:18.200Z,3.83
2018-01-06T05:53:45.794Z,2.97
2018-01-06T05:56:14.158Z,2.80
2018-01-06T05:58:42.522Z,3.17
2018-01-06T06:01:10.119Z,3.27
2018-01-06T06:03:38.608Z,3.00
2018-01-06T06:06:06.982Z,3.30
2018-01-06T06:08:34.564Z,2.97
2018-01-06T06:11:02.950Z,2.73
2018-01-06T06:13:31.309Z,4.07
2018-01-06T06:15:59.689Z,5.60
2018-01-06T06:18:27.302Z,5.77
2018-01-06T06:20:54.883Z,4.70
2018-01-06T06:23:22.511Z,4.33
2018-01-06T06:25:50.116Z,4.30
2018-01-06T06:28:17.699Z,4.37
2018-01-06T06:30:45.303Z,4.77
2018-01-06T06:33:13.653Z,4.70
2018-01-06T06:35:41.371Z,4.47
2018-01-06T06:38:08.985Z,4.30
2018-01-06T06:40:36.579Z,4.13
2018-01-06T06:43:04.967Z,5.30
2018-01-06T06:45:33.319Z,4.67
2018-01-06T06:48:01.048Z,4.40
2018-01-06T06:50:28.671Z,3.90
2018-01-06T06:52:56.263Z,5.10
2018-01-06T06:55:23.872Z,4.60
2018-01-06T06:57:51.499Z,4.03
2018-01-06T07:00:19.107Z,2.87
2018-01-06T07:02:46.694Z,4.53
2018-01-06T07:05:14.283Z,3.90
2018-01-06T07:07:42.658Z,4.40
2018-01-06T07:10:11.026Z,4.83
2018-01-06T07:12:38.840Z,4.50
2018-01-06T07:15:06.431Z,4.37
2018-01-06T07:17:34.295Z,4.83
2018-01-06T07:20:01.879Z,4.43
2018-01-06T07:22:29.603Z,4.63
2018-01-06T07:24:57.221Z,3.83
2018-01-06T07:27:25.644Z,4.33
2018-01-06T07:29:53.444Z,4.07
2018-01-06T07:32:21.026Z,4.33
2018-01-06T07:34:48.667Z,9.90
2018-01-06T07:37:16.258Z,8.00
2018-01-06T07:39:43.862Z,8.60
2018-01-06T07:42:12.248Z,10.13
2018-01-06T07:44:40.610Z,5.80
2018-01-06T07:47:08.393Z,5.00
2018-01-06T07:49:36.767Z,5.27
2018-01-06T07:52:04.372Z,4.77
2018-01-06T07:54:31.996Z,4.13
2018-01-06T07:56:59.596Z,4.27
2018-01-06T07:59:27.205Z,4.63
2018-01-06T08:01:54.885Z,3.57
2018-01-06T08:04:23.240Z,4.30
2018-01-06T08:06:51.025Z,5.20
2018-01-06T08:09:18.626Z,5.03
2018-01-06T08:11:47.033Z,5.10
2018-01-06T08:14:14.625Z,3.80
2018-01-06T08:16:42.275Z,5.87
2018-01-06T08:19:09.883Z,5.00
2018-01-06T08:21:37.482Z,4.80
2018-01-06T08:24:06.091Z,4.17
2018-01-06T08:26:33.679Z,4.30
2018-01-06T08:29:01.289Z,4.80
2018-01-06T08:31:29.662Z,4.20
2018-01-06T08:33:57.287Z,4.73
2018-01-06T08:36:24.937Z,4.60
2018-01-06T08:38:52.656Z,4.70
2018-01-06T08:41:20.271Z,3.07
2018-01-06T08:43:47.867Z,3.80
2018-01-06T08:46:15.598Z,3.77
2018-01-06T08:48:43.200Z,3.83
2018-01-06T08:51:10.834Z,3.50
2018-01-06T08:53:38.483Z,3.77
2018-01-06T08:56:06.845Z,3.20
2018-01-06T08:58:35.227Z,3.47
2018-01-06T09:01:02.872Z,4.20
2018-01-06T09:03:30.790Z,2.93
2018-01-06T09:05:58.461Z,3.30
2018-01-06T09:08:26.108Z,3.00
2018-01-06T09:10:54.515Z,3.00
2018-01-06T09:13:22.145Z,2.60
2018-01-06T09:15:49.755Z,2.73
2018-01-06T09:18:17.364Z,2.60
2018-01-06T09:20:45.002Z,2.60
2018-01-06T09:23:12.608Z,2.80
2018-01-06T09:25:40.208Z,2.50
2018-01-06T09:28:07.810Z,2.90
2018-01-06T09:30:35.413Z,2.13
2018-01-06T09:33:03.036Z,2.30
2018-01-06T09:35:30.642Z,2.47
2018-01-06T09:37:58.244Z,2.97
2018-01-06T09:40:25.875Z,2.07
2018-01-06T09:42:54.308Z,2.20
2018-01-06T09:45:21.952Z,2.57
2018-01-06T09:47:49.555Z,2.73
2018-01-06T09:50:17.190Z,2.30
2018-01-06T09:52:44.813Z,5.17
2018-01-06T09:55:12.635Z,24.07
2018-01-06T09:57:40.271Z,2.13
2018-01-06T10:00:08.632Z,1.70
2018-01-06T10:02:36.256Z,13.30
2018-01-06T10:07:36.198Z,8.23
2018-01-06T10:10:03.828Z,8.47
2018-01-06T10:12:32.195Z,2.87
2018-01-06T10:15:00.589Z,1.50
2018-01-06T10:17:29.037Z,1.70
2018-01-06T10:19:56.755Z,1.43
2018-01-06T10:22:24.363Z,1.40
2018-01-06T10:24:51.994Z,1.27
2018-01-06T10:27:19.649Z,1.37
2018-01-06T10:29:48.147Z,1.40
2018-01-06T10:32:15.764Z,2.00
2018-01-06T10:34:43.539Z,1.60
2018-01-06T10:37:11.162Z,1.20
2018-01-06T10:39:38.784Z,1.53
2018-01-06T10:42:07.156Z,1.30
2018-01-06T10:44:36.271Z,1.00
2018-01-06T10:47:04.694Z,1.27
2018-01-06T10:49:32.376Z,7.60
2018-01-06T10:51:59.990Z,1.63
2018-01-06T10:54:28.414Z,1.60
2018-01-06T10:56:56.033Z,1.13
2018-01-06T10:59:23.636Z,2.90
2018-01-06T11:01:56.955Z,1.30
2018-01-06T11:04:24.555Z,1.40
2018-01-06T11:06:52.225Z,1.33
2018-01-06T11:09:20.679Z,1.70
2018-01-06T11:11:48.308Z,1.10
2018-01-06T11:14:15.934Z,1.10
2018-01-06T11:16:43.594Z,0.87
2018-01-06T11:19:11.214Z,1.20
2018-01-06T11:21:38.791Z,2.50
2018-01-06T11:24:06.408Z,1.53
2018-01-06T11:26:34.794Z,1.30
2018-01-06T11:29:03.159Z,1.10
2018-01-06T11:31:31.556Z,1.97
2018-01-06T11:33:59.923Z,1.10
2018-01-06T11:36:27.537Z,6.83
2018-01-06T11:38:55.144Z,1.50
2018-01-06T11:41:23.537Z,1.07
2018-01-06T11:43:51.149Z,2.90
2018-01-06T11:46:18.833Z,2.37
2018-01-06T11:48:46.457Z,3.87
2018-01-06T11:51:14.832Z,5.03
2018-01-06T11:53:42.468Z,1.50
2018-01-06T11:56:10.087Z,1.60
2018-01-06T11:58:38.459Z,1.77
2018-01-06T12:01:06.880Z,1.20
2018-01-06T12:03:34.489Z,1.57
2018-01-06T12:06:02.116Z,1.30
2018-01-06T12:08:29.718Z,1.27
2018-01-06T12:10:57.316Z,1.93
2018-01-06T12:13:24.939Z,1.40
2018-01-06T12:15:52.560Z,2.00
2018-01-06T12:18:20.192Z,2.47
2018-01-06T12:20:48.576Z,2.37
2018-01-06T12:23:16.221Z,1.57
2018-01-06T12:25:43.857Z,1.90
2018-01-06T12:28:11.494Z,1.43
2018-01-06T12:30:39.948Z,1.10
2018-01-06T12:33:07.589Z,3.50
2018-01-06T12:35:35.210Z,0.97
2018-01-06T12:38:03.572Z,0.90
2018-01-06T12:40:31.975Z,1.00
2018-01-06T12:43:00.353Z,1.13
2018-01-06T12:45:28.766Z,1.80
2018-01-06T12:47:56.477Z,2.83
2018-01-06T12:50:24.178Z,1.20
2018-01-06T12:52:52.621Z,1.20
2018-01-06T12:55:20.252Z,1.23
2018-01-06T12:57:47.979Z,2.23
2018-01-06T13:00:15.590Z,1.63
2018-01-06T13:02:43.227Z,1.23
2018-01-06T13:05:11.610Z,1.57
2018-01-06T13:07:40.118Z,1.30
2018-01-06T13:10:07.792Z,1.47
2018-01-06T13:12:35.474Z,1.47
2018-01-06T13:15:03.132Z,1.67
2018-01-06T13:17:30.869Z,1.87
2018-01-06T13:19:58.525Z,2.57
2018-01-06T13:22:27.083Z,4.40
2018-01-06T13:24:55.603Z,3.70
2018-01-06T13:27:24.755Z,1.90
2018-01-06T13:29:52.413Z,2.70
2018-01-06T13:32:20.067Z,3.20
2018-01-06T13:34:47.813Z,2.60
2018-01-06T13:37:15.469Z,3.43
2018-01-06T13:39:43.095Z,1.30
2018-01-06T13:42:10.774Z,1.13
2018-01-06T13:44:38.397Z,2.07
2018-01-06T13:47:06.022Z,1.73
2018-01-06T13:49:33.779Z,1.80
2018-01-06T13:52:01.423Z,1.30
2018-01-06T13:54:29.081Z,1.37
2018-01-06T13:56:56.754Z,6.37
2018-01-06T13:59:24.629Z,1.53
2018-01-06T14:01:53.127Z,1.63
2018-01-06T14:04:20.780Z,2.10
2018-01-06T14:06:48.370Z,2.03
2018-01-06T14:09:16.851Z,1.00
2018-01-06T14:11:44.474Z,1.20
2018-01-06T14:14:12.132Z,1.20
2018-01-06T14:16:39.763Z,1.50
2018-01-06T14:19:07.790Z,1.40
2018-01-06T14:21:35.526Z,1.40
2018-01-06T14:24:03.954Z,1.50
2018-01-06T14:26:31.602Z,2.60
2018-01-06T14:28:59.298Z,1.23
2018-01-06T14:31:26.926Z,2.30
2018-01-06T14:33:54.576Z,1.20
2018-01-06T14:36:23.130Z,1.40
2018-01-06T14:38:53.276Z,1.50
2018-01-06T14:41:20.946Z,0.93
2018-01-06T14:43:48.607Z,2.10
2018-01-06T14:46:17.003Z,1.60
2018-01-06T14:48:45.845Z,1.90
2018-01-06T14:51:13.466Z,4.27
2018-01-06T14:53:41.903Z,1.50
2018-01-06T14:56:09.586Z,1.40
2018-01-06T14:58:37.283Z,1.73
2018-01-06T15:01:05.824Z,1.70
2018-01-06T15:03:33.415Z,1.37
2018-01-06T15:06:01.078Z,1.30
2018-01-06T15:08:28.743Z,1.53
2018-01-06T15:10:56.374Z,1.50
2018-01-06T15:13:24.113Z,1.70
2018-01-06T15:15:51.756Z,1.60
2018-01-06T15:18:19.444Z,2.40
2018-01-06T15:20:47.110Z,1.60
2018-01-06T15:23:14.817Z,1.73
2018-01-06T15:25:42.482Z,2.47
2018-01-06T15:28:10.104Z,2.80
2018-01-06T15:30:37.852Z,5.20
2018-01-06T15:33:05.448Z,8.27
2018-01-06T15:35:33.212Z,8.53
2018-01-06T15:38:00.848Z,8.43
2018-01-06T15:40:29.261Z,11.30
2018-01-06T15:42:57.652Z,11.30
2018-01-06T15:45:25.382Z,18.23
2018-01-06T15:47:53.030Z,10.10
2018-01-06T15:50:20.746Z,6.00
2018-01-06T15:52:48.396Z,9.97
2018-01-06T15:55:18.370Z,6.33
2018-01-06T15:57:46.081Z,5.80
2018-01-06T16:00:14.572Z,5.37
2018-01-06T16:02:43.004Z,5.07
2018-01-06T16:05:13.864Z,6.20
2018-01-06T16:07:41.624Z,6.87
2018-01-06T16:10:10.476Z,18.80
2018-01-06T16:12:38.266Z,15.80
2018-01-06T16:15:05.962Z,18.67
2018-01-06T16:17:33.688Z,15.07
2018-01-06T16:20:05.662Z,14.83
2018-01-06T16:22:33.466Z,13.60
2018-01-06T16:25:01.347Z,7.93
2018-01-06T16:27:29.071Z,8.20
2018-01-06T16:29:56.739Z,10.97
2018-01-06T16:32:24.362Z,8.73
2018-01-06T16:34:51.988Z,8.10
2018-01-06T16:37:19.730Z,8.40
2018-01-06T16:39:47.339Z,12.77
2018-01-06T16:42:15.109Z,13.40
2018-01-06T16:44:42.741Z,10.20
2018-01-06T16:47:10.529Z,22.23
2018-01-06T16:49:38.136Z,20.90
2018-01-06T16:52:05.931Z,14.80
2018-01-06T16:54:34.321Z,10.77
2018-01-06T16:57:01.946Z,9.23
2018-01-06T16:59:29.626Z,8.80
2018-01-06T17:01:58.075Z,60.17
2018-01-06T17:04:25.749Z,17.13
2018-01-06T17:06:53.403Z,11.17
2018-01-06T17:09:21.015Z,11.63
2018-01-06T17:11:48.962Z,16.80
2018-01-06T17:14:18.095Z,10.87
2018-01-06T17:16:50.396Z,9.00
2018-01-06T17:19:18.027Z,11.60
2018-01-06T17:21:46.400Z,11.50
2018-01-06T17:24:14.818Z,11.17
2018-01-06T17:26:42.466Z,14.43
2018-01-06T17:29:10.876Z,13.80
2018-01-06T17:31:38.510Z,15.60
2018-01-06T17:34:06.919Z,12.60
2018-01-06T17:36:34.587Z,10.37
2018-01-06T17:39:02.241Z,9.27
2018-01-06T17:41:30.046Z,12.30
2018-01-06T17:43:57.687Z,8.07
2018-01-06T17:46:25.322Z,9.87
2018-01-06T17:48:52.961Z,8.90
2018-01-06T17:51:20.616Z,8.80
2018-01-06T17:53:48.564Z,9.60
2018-01-06T17:56:16.236Z,9.30
2018-01-06T17:58:43.992Z,8.63
2018-01-06T18:01:11.642Z,8.53
2018-01-06T18:03:40.094Z,8.50
2018-01-06T18:06:08.515Z,8.90
2018-01-06T18:08:36.894Z,9.13
2018-01-06T18:11:05.459Z,10.40
2018-01-06T18:13:34.609Z,12.90
2018-01-06T18:16:02.251Z,15.73
2018-01-06T18:18:30.713Z,15.10
2018-01-06T18:20:58.435Z,15.63
2018-01-06T18:23:26.118Z,14.23
2018-01-06T18:25:53.755Z,17.13
2018-01-06T18:28:21.411Z,19.43
2018-01-06T18:30:49.188Z,21.23
2018-01-06T18:33:16.958Z,18.33
2018-01-06T18:35:44.710Z,15.60
2018-01-06T18:38:13.189Z,14.10
2018-01-06T18:40:41.634Z,11.70
2018-01-06T18:43:09.361Z,11.03
2018-01-06T18:45:37.065Z,11.07
2018-01-06T18:48:04.767Z,8.60
2018-01-06T18:50:32.555Z,11.70
2018-01-06T18:53:00.965Z,11.93
2018-01-06T18:55:28.633Z,12.40
2018-01-06T18:57:56.454Z,12.07
2018-01-06T19:00:24.234Z,14.10
2018-01-06T19:02:52.767Z,13.47
2018-01-06T19:05:20.530Z,23.97
2018-01-06T19:07:48.200Z,51.00
2018-01-06T19:10:15.917Z,33.53
2018-01-06T19:12:43.598Z,32.90
2018-01-06T19:15:12.050Z,80.30
2018-01-06T19:17:40.492Z,29.87
2018-01-06T19:20:08.204Z,26.20
2018-01-06T19:22:36.651Z,39.27
2018-01-06T19:25:04.414Z,30.90
2018-01-06T19:27:32.042Z,9.87
2018-01-06T19:29:59.797Z,11.63
2018-01-06T19:32:29.464Z,14.00
2018-01-06T19:34:57.535Z,15.77
2018-01-06T19:37:25.239Z,14.63
2018-01-06T19:39:53.672Z,21.03
2018-01-06T19:42:22.161Z,21.87
2018-01-06T19:44:49.854Z,28.53
2018-01-06T19:47:17.578Z,24.97
2018-01-06T19:49:46.304Z,13.57
2018-01-06T19:52:13.980Z,29.87
2018-01-06T19:54:41.771Z,15.73
2018-01-06T19:57:09.558Z,41.27
2018-01-06T19:59:37.587Z,38.73
2018-01-06T20:02:05.262Z,32.50
2018-01-06T20:04:32.963Z,13.13
2018-01-06T20:07:02.238Z,16.87
2018-01-06T20:09:29.945Z,15.77
2018-01-06T20:11:57.639Z,27.77
2018-01-06T20:14:26.139Z,29.70
2018-01-06T20:16:53.915Z,21.93
2018-01-06T20:19:21.685Z,53.90
2018-01-06T20:21:49.371Z,21.90
2018-01-06T20:24:17.019Z,34.27
2018-01-06T20:26:44.706Z,33.27
2018-01-06T20:29:12.437Z,21.10
2018-01-06T20:31:40.190Z,21.97
2018-01-06T20:34:09.532Z,18.87
2018-01-06T20:36:37.299Z,24.60
2018-01-06T20:39:05.083Z,26.23
2018-01-06T20:41:32.797Z,35.07
2018-01-06T20:44:01.256Z,20.50
2018-01-06T20:46:30.132Z,17.80
2018-01-06T20:48:58.488Z,18.57
2018-01-06T20:51:26.204Z,15.57
2018-01-06T20:53:53.934Z,15.23
2018-01-06T20:56:22.453Z,18.90
2018-01-06T20:58:50.286Z,23.80
2018-01-06T21:01:18.170Z,28.37
2018-01-06T21:03:45.832Z,34.00
2018-01-06T21:06:13.542Z,35.07
2018-01-06T21:08:42.290Z,33.70
2018-01-06T21:11:10.007Z,26.53
2018-01-06T21:13:38.398Z,24.37
2018-01-06T21:16:06.207Z,21.80
2018-01-06T21:18:33.946Z,17.60
2018-01-06T21:21:02.432Z,18.63
2018-01-06T21:23:30.914Z,23.20
2018-01-06T21:25:59.410Z,19.90
2018-01-06T21:28:27.896Z,18.93
2018-01-06T21:30:56.429Z,18.53
2018-01-06T21:33:24.914Z,17.10
2018-01-06T21:35:52.612Z,16.53
2018-01-06T21:38:20.424Z,17.00
2018-01-06T21:40:49.027Z,18.30
2018-01-06T21:43:16.839Z,23.30
2018-01-06T21:45:44.631Z,22.83
2018-01-06T21:48:13.046Z,18.80
2018-01-06T21:50:40.971Z,24.17
2018-01-06T21:53:09.457Z,21.17
2018-01-06T21:55:37.272Z,22.77
2018-01-06T21:58:04.969Z,22.63
2018-01-06T22:00:32.713Z,22.80
2018-01-06T22:03:00.408Z,20.37
2018-01-06T22:05:28.072Z,17.47
2018-01-06T22:07:55.902Z,15.57
2018-01-06T22:10:23.601Z,16.60
2018-01-06T22:12:51.305Z,15.23
2018-01-06T22:15:19.244Z,15.90
2018-01-06T22:17:46.933Z,13.17
2018-01-06T22:20:14.699Z,12.13
2018-01-06T22:22:43.941Z,15.03
2018-01-06T22:25:12.361Z,14.60
2018-01-06T22:27:40.041Z,14.53
2018-01-06T22:30:07.712Z,16.23
2018-01-06T22:32:35.383Z,16.33
2018-01-06T22:35:03.178Z,11.87
2018-01-06T22:37:31.624Z,13.80
2018-01-06T22:39:59.308Z,13.50
2018-01-06T22:42:26.988Z,15.10
2018-01-06T22:44:56.144Z,12.73
2018-01-06T22:47:23.804Z,14.63
2018-01-06T22:49:51.414Z,10.30
2018-01-06T22:52:19.049Z,15.70
2018-01-06T22:54:46.668Z,12.90
2018-01-06T22:57:14.365Z,13.90
2018-01-06T22:59:41.992Z,11.73
2018-01-06T23:02:10.524Z,10.97
2018-01-06T23:04:38.142Z,11.27
2018-01-06T23:07:07.290Z,9.10
2018-01-06T23:09:34.958Z,9.07
2018-01-06T23:12:02.597Z,9.33
2018-01-06T23:14:30.993Z,8.20
2018-01-06T23:16:58.656Z,12.23
2018-01-06T23:19:26.277Z,10.20
2018-01-06T23:21:53.893Z,11.97
2018-01-06T23:24:21.517Z,9.83
2018-01-06T23:26:50.651Z,11.40
2018-01-06T23:29:19.025Z,14.20
2018-01-06T23:31:47.414Z,12.17
2018-01-06T23:34:15.805Z,12.97
2018-01-06T23:36:44.185Z,12.50
2018-01-06T23:39:12.599Z,11.97
2018-01-06T23:41:41.000Z,10.70
2018-01-06T23:44:09.359Z,10.90
2018-01-06T23:46:36.976Z,13.30
2018-01-06T23:49:04.726Z,12.40
2018-01-06T23:51:32.415Z,12.13
2018-01-06T23:54:00.011Z,11.57
2018-01-06T23:56:27.640Z,14.60
2018-01-06T23:58:56.742Z,11.23
